ADDS METAR Data INFO
IDs: Format: Raw Decoded Include TAF

Data at: 2320 UTC 15 Jul 2018

KTWM 152315Z AUTO 29009G15KT 261V321 10SM 23/18 A2989 RMK AO2
KTWM 152255Z AUTO 29008KT 261V341 10SM 23/18 A2990 RMK AO2
KTWM 152235Z AUTO 28004KT 10SM 23/17 A2991 RMK AO2
KTWM 152215Z AUTO 28005KT 10SM 23/17 A2991 RMK AO2
KTWM 152155Z AUTO 30007G17KT 10SM 23/17 A2991 RMK AO2
KTWM 152135Z AUTO 29007KT 261V331 10SM 23/18 A2991 RMK AO2
KTWM 152115Z AUTO 29007G15KT 261V341 10SM 23/18 A2991 RMK AO2
KTWM 152055Z AUTO 30007KT 10SM 23/19 A2992 RMK AO2
KTWM 152035Z AUTO 30008G14KT 261V351 10SM 24/19 A2991 RMK AO2
KTWM 152015Z AUTO 29005KT 10SM 24/20 A2990 RMK AO2
KTWM 151955Z AUTO 27006KT 10SM 25/20 A2991 RMK AO2
KTWM 151935Z AUTO 24006KT 10SM 26/20 A2991 RMK AO2
KTWM 151915Z AUTO 25006KT 10SM 26/20 A2990 RMK AO2
KTWM 151855Z AUTO 24008KT 10SM 25/19 A2992 RMK AO2
KTWM 151835Z AUTO 25008KT 10SM 26/19 A2992 RMK AO2
KTWM 151815Z AUTO 23005KT 10SM BKN055 25/20 A2992 RMK AO2
KTWM 151755Z AUTO 26005KT 10SM BKN055 25/19 A2993 RMK AO2
KTWM 151735Z AUTO 26007KT 10SM BKN055 26/19 A2993 RMK AO2
KTWM 151715Z AUTO 27008G17KT 10SM SCT055 26/19 A2993 RMK AO2
KTWM 151655Z AUTO 26010G16KT 10SM SCT055 27/19 A2993 RMK AO2
KTWM 151635Z AUTO 25010KT 10SM SCT055 27/19 A2994 RMK AO2
KTWM 151615Z AUTO 27006KT 10SM SCT045 SCT055 27/19 A2993 RMK AO2
KTWM 151555Z AUTO 24010KT 10SM CLR 27/20 A2992 RMK AO2
KTWM 151535Z AUTO 19008G14KT 10SM 27/20 A2991 RMK AO2
KTWM 151515Z AUTO 20008KT 161V221 10SM 28/20 A2991 RMK AO2
KTWM 151455Z AUTO 18008KT 10SM 27/19 A2990 RMK AO2
KTWM 151435Z AUTO 21009KT 10SM 27/19 A2991 RMK AO2
KTWM 151415Z AUTO 21006KT 10SM 26/19 A2992 RMK AO2
KTWM 151355Z AUTO 24007KT 10SM 26/19 A2993 RMK AO2
KTWM 151335Z AUTO 24006KT 10SM 25/19 A2993 RMK AO2
KTWM 151315Z AUTO 26007KT 10SM CLR 24/19 A2994 RMK AO2
KTWM 151255Z AUTO 26007KT 10SM CLR 23/18 A2994 RMK AO2
KTWM 151235Z AUTO 27006KT 10SM CLR 23/18 A2994 RMK AO2
KTWM 151215Z AUTO 26005KT 10SM CLR 22/17 A2994 RMK AO2
KTWM 151155Z AUTO 00000KT 10SM CLR 19/17 A2994 RMK AO2
KTWM 151136Z AUTO 00000KT 10SM CLR 19/16 A2994 RMK AO2 LTG DSNT SE
KTWM 151115Z AUTO 00000KT 10SM CLR 18/15 A2994 RMK AO2 LTG DSNT SE
KTWM 151055Z AUTO 19003KT 10SM CLR 18/15 A2995 RMK AO2
KTWM 151035Z AUTO 28004KT 10SM CLR 20/16 A2995 RMK AO2 LTG DSNT E
KTWM 151015Z AUTO 00000KT 10SM CLR 18/16 A2995 RMK AO2
KTWM 150955Z AUTO 27003KT 10SM CLR 21/16 A2995 RMK AO2
KTWM 150935Z AUTO 27005KT 10SM CLR 21/16 A2995 RMK AO2
KTWM 150915Z AUTO 27005KT 10SM CLR 21/16 A2995 RMK AO2
KTWM 150855Z AUTO 27005KT 10SM CLR 21/16 A2995 RMK AO2
KTWM 150835Z AUTO 28005KT 10SM CLR 21/16 A2995 RMK AO2
KTWM 150815Z AUTO 27004KT 10SM CLR 21/16 A2996 RMK AO2
KTWM 150755Z AUTO 28003KT 10SM CLR 21/16 A2996 RMK AO2
KTWM 150735Z AUTO 28003KT 10SM CLR 21/16 A2996 RMK AO2
KTWM 150715Z AUTO 27003KT 10SM CLR 19/16 A2996 RMK AO2
KTWM 150655Z AUTO 00000KT 10SM CLR 19/16 A2996 RMK AO2
KTWM 150635Z AUTO 00000KT 10SM CLR 22/17 A2996 RMK AO2
KTWM 150615Z AUTO 28003KT 10SM CLR 22/17 A2997 RMK AO2
KTWM 150555Z AUTO 28003KT 10SM CLR 22/17 A2998 RMK AO2
KTWM 150535Z AUTO 00000KT 10SM CLR 21/17 A2998 RMK AO2
KTWM 150515Z AUTO 27004KT 10SM CLR 22/17 A2998 RMK AO2
KTWM 150455Z AUTO 28004KT 10SM CLR 22/17 A2999 RMK AO2
KTWM 150435Z AUTO 27003KT 10SM CLR 20/17 A2999 RMK AO2
KTWM 150415Z AUTO 00000KT 10SM CLR 19/17 A2998 RMK AO2
KTWM 150355Z AUTO 00000KT 10SM 21/18 A2998 RMK AO2
KTWM 150335Z AUTO 00000KT 10SM 20/17 A2997 RMK AO2
KTWM 150315Z AUTO 00000KT 10SM 21/18 A2997 RMK AO2
KTWM 150255Z AUTO 00000KT 10SM 21/18 A2996 RMK AO2
KTWM 150235Z AUTO 00000KT 10SM 21/18 A2996 RMK AO2
KTWM 150215Z AUTO 00000KT 10SM 22/19 A2995 RMK AO2
KTWM 150155Z AUTO 00000KT 10SM CLR 22/19 A2994 RMK AO2
KTWM 150135Z AUTO 00000KT 10SM CLR 23/19 A2994 RMK AO2
KTWM 150115Z AUTO 00000KT 10SM CLR 24/19 A2995 RMK AO2
KTWM 150055Z AUTO 00000KT 10SM CLR 25/19 A2995 RMK AO2
KTWM 150035Z AUTO 00000KT 10SM CLR 27/20 A2996 RMK AO2
KTWM 150015Z AUTO 20003KT 10SM CLR 28/19 A2996 RMK AO2
KTWM 142355Z AUTO 20004KT 10SM CLR 28/18 A2996 RMK AO2
KTWM 142335Z AUTO 19006KT 10SM CLR 29/19 A2996 RMK AO2
KTWM 142315Z AUTO 20005KT 10SM CLR 29/19 A2997 RMK AO2
KTWM 142255Z AUTO 19006KT 10SM CLR 29/19 A2997 RMK AO2
KTWM 142235Z AUTO 18006KT 10SM CLR 29/18 A2998 RMK AO2
KTWM 142215Z AUTO 20007KT 10SM CLR 29/18 A2997 RMK AO2
KTWM 142155Z AUTO 18006KT 10SM CLR 29/19 A2997 RMK AO2
KTWM 142135Z AUTO 20007KT 10SM CLR 29/18 A2998 RMK AO2
KTWM 142115Z AUTO 16007KT 10SM CLR 29/19 A2998 RMK AO2
KTWM 142055Z AUTO 16006KT 10SM CLR 29/19 A2999 RMK AO2
KTWM 142036Z AUTO 16007KT 141V201 10SM CLR 29/18 A2999 RMK AO2
KTWM 142015Z AUTO 17008KT 10SM CLR 29/18 A3000 RMK AO2
KTWM 141955Z AUTO 18008KT 10SM CLR 29/18 A3000 RMK AO2
KTWM 141935Z AUTO 17007KT 10SM CLR 29/19 A3000 RMK AO2
KTWM 141915Z AUTO 16007KT 10SM CLR 29/19 A3000 RMK AO2
KTWM 141855Z AUTO 17007KT 10SM CLR 29/19 A3001 RMK AO2
KTWM 141835Z AUTO 18008KT 10SM SCT055 29/19 A3001 RMK AO2
KTWM 141815Z AUTO 16006KT 10SM SCT055 30/19 A3001 RMK AO2
KTWM 141755Z AUTO 11004KT 10SM CLR 29/19 A3002 RMK AO2
KTWM 141735Z AUTO 00000KT 10SM SCT065 29/17 A3002 RMK AO2
KTWM 141715Z AUTO 14004KT 10SM CLR 29/18 A3002 RMK AO2
KTWM 141655Z AUTO 26006KT 10SM CLR 29/18 A3003 RMK AO2
KTWM 141635Z AUTO 32003KT 10SM CLR 29/17 A3003 RMK AO2
KTWM 141615Z AUTO 35004KT 10SM CLR 29/17 A3003 RMK AO2
KTWM 141555Z AUTO 00000KT 10SM CLR 28/17 A3003 RMK AO2
KTWM 141535Z AUTO 00000KT 10SM CLR 28/18 A3003 RMK AO2
KTWM 141515Z AUTO 00000KT 10SM CLR 28/18 A3003 RMK AO2
KTWM 141455Z AUTO 30003KT 10SM 27/18 A3003 RMK AO2
KTWM 141435Z AUTO 00000KT 10SM 27/18 A3003 RMK AO2
KTWM 141415Z AUTO 00000KT 10SM 27/18 A3003 RMK AO2
KTWM 141355Z AUTO 00000KT 10SM 26/18 A3003 RMK AO2
KTWM 141335Z AUTO 00000KT 10SM 25/18 A3003 RMK AO2
KTWM 141315Z AUTO 35003KT 10SM CLR 24/18 A3003 RMK AO2
KTWM 141255Z AUTO 34003KT 10SM CLR 24/18 A3002 RMK AO2
KTWM 141235Z AUTO 33003KT 10SM CLR 23/17 A3002 RMK AO2
KTWM 141215Z AUTO 32004KT 10SM CLR 22/17 A3002 RMK AO2
KTWM 141155Z AUTO 31003KT 10SM CLR 22/17 A3002 RMK AO2
KTWM 141135Z AUTO 32005KT 10SM CLR 21/16 A3002 RMK AO2